createdAt,value
2023-03-11T00:01:10.474Z,148.12
2023-03-11T00:05:10.643Z,147.19
2023-03-11T00:09:10.723Z,146.71
2023-03-11T00:13:10.891Z,143.94
2023-03-11T00:17:11.084Z,147.44
2023-03-11T00:21:11.152Z,146.82
2023-03-11T00:25:11.304Z,146.15
2023-03-11T00:29:11.386Z,144.43
2023-03-11T00:33:11.375Z,141.48
2023-03-11T00:37:11.522Z,145.32
2023-03-11T00:41:11.534Z,144.14
2023-03-11T00:45:11.635Z,143.54
2023-03-11T00:49:11.968Z,141.46
2023-03-11T00:53:11.939Z,138.42
2023-03-11T00:57:11.935Z,142.63
2023-03-11T01:01:12.092Z,141.10
2023-03-11T01:05:12.200Z,140.68
2023-03-11T01:09:12.315Z,142.17
2023-03-11T01:13:12.336Z,141.36
2023-03-11T01:17:12.415Z,138.61
2023-03-11T01:21:12.384Z,136.07
2023-03-11T01:25:12.436Z,135.58
2023-03-11T01:29:12.498Z,137.31
2023-03-11T01:33:12.496Z,134.90
2023-03-11T01:37:12.550Z,134.68
2023-03-11T01:41:12.519Z,136.04
2023-03-11T01:45:12.538Z,134.65
2023-03-11T01:49:12.465Z,133.41
2023-03-11T01:53:12.496Z,131.61
2023-03-11T01:57:12.506Z,130.55
2023-03-11T02:01:12.560Z,131.94
2023-03-11T02:05:12.525Z,129.57
2023-03-11T02:09:12.493Z,129.27
2023-03-11T02:13:12.519Z,131.10
2023-03-11T02:17:12.469Z,127.91
2023-03-11T02:21:12.468Z,129.41
2023-03-11T02:25:12.461Z,126.75
2023-03-11T02:29:12.448Z,129.95
2023-03-11T02:33:12.416Z,127.82
2023-03-11T02:37:12.466Z,126.84
2023-03-11T02:41:12.330Z,129.25
2023-03-11T02:45:12.325Z,127.84
2023-03-11T02:49:12.352Z,124.04
2023-03-11T02:53:12.271Z,123.42
2023-03-11T02:57:12.302Z,125.53
2023-03-11T03:01:12.268Z,123.44
2023-03-11T03:05:12.233Z,124.98
2023-03-11T03:09:12.183Z,120.45
2023-03-11T03:13:12.203Z,119.26
2023-03-11T03:17:12.228Z,122.65
2023-03-11T03:21:12.132Z,121.70
2023-03-11T03:25:12.113Z,121.32
2023-03-11T03:29:12.104Z,116.84
2023-03-11T03:33:12.133Z,122.66
2023-03-11T03:37:12.118Z,114.90
2023-03-11T03:41:12.122Z,121.23
2023-03-11T03:45:12.112Z,118.39
2023-03-11T03:49:12.018Z,115.53
2023-03-11T03:53:12.044Z,121.25
2023-03-11T03:57:12.005Z,115.32
2023-03-11T04:01:12.014Z,117.69
2023-03-11T04:05:11.989Z,113.66
2023-03-11T04:09:11.978Z,119.77
2023-03-11T04:13:12.000Z,116.00
2023-03-11T04:17:11.938Z,114.01
2023-03-11T04:21:12.091Z,115.80
2023-03-11T04:25:11.876Z,115.23
2023-03-11T04:29:11.900Z,111.36
2023-03-11T04:33:12.015Z,113.61
2023-03-11T04:37:11.864Z,112.76
2023-03-11T04:41:11.881Z,107.49
2023-03-11T04:45:11.955Z,109.57
2023-03-11T04:49:11.884Z,109.52
2023-03-11T04:53:11.853Z,106.72
2023-03-11T04:57:11.875Z,108.94
2023-03-11T05:01:11.842Z,103.32
2023-03-11T05:05:11.825Z,109.68
2023-03-11T05:09:11.859Z,103.72
2023-03-11T05:13:11.809Z,108.38
2023-03-11T05:17:11.844Z,105.00
2023-03-11T05:21:11.847Z,105.77
2023-03-11T05:25:11.864Z,104.16
2023-03-11T05:29:11.893Z,101.40
2023-03-11T05:33:11.938Z,104.25
2023-03-11T05:37:11.882Z,103.43
2023-03-11T05:41:11.878Z,106.01
2023-03-11T05:45:12.045Z,104.68
2023-03-11T05:49:11.925Z,103.73
2023-03-11T05:53:12.136Z,105.82
2023-03-11T05:57:11.982Z,104.93
2023-03-11T06:01:11.946Z,98.78
2023-03-11T06:05:13.717Z,99.10
2023-03-11T06:09:11.955Z,99.64
2023-03-11T06:13:11.987Z,101.29
2023-03-11T06:17:12.019Z,97.53
2023-03-11T06:21:12.030Z,98.97
2023-03-11T06:25:12.049Z,97.47
2023-03-11T06:29:12.095Z,99.32
2023-03-11T06:33:12.167Z,97.58
2023-03-11T06:37:12.164Z,97.86
2023-03-11T06:41:12.266Z,96.38
2023-03-11T06:45:12.290Z,97.58
2023-03-11T06:49:12.317Z,96.64
2023-03-11T06:53:12.343Z,96.19
2023-03-11T06:57:12.369Z,98.77
2023-03-11T07:01:12.494Z,92.92
2023-03-11T07:05:12.464Z,92.33
2023-03-11T07:09:12.576Z,92.53
2023-03-11T07:13:12.523Z,92.39
2023-03-11T07:17:12.590Z,94.28
2023-03-11T07:21:12.574Z,95.38
2023-03-11T07:25:12.607Z,90.69
2023-03-11T07:29:12.607Z,91.33
2023-03-11T07:33:12.614Z,89.42
2023-03-11T07:37:12.598Z,83.72
2023-03-11T07:41:12.577Z,88.28
2023-03-11T07:45:12.665Z,82.78
2023-03-11T07:49:12.643Z,79.41
2023-03-11T07:53:12.613Z,81.82
2023-03-11T07:57:12.589Z,75.90
2023-03-11T08:01:12.599Z,73.22
2023-03-11T08:05:12.557Z,75.98
2023-03-11T08:09:12.564Z,79.52
2023-03-11T08:13:12.537Z,79.50
2023-03-11T08:17:12.511Z,79.75
2023-03-11T08:21:12.492Z,77.86
2023-03-11T08:25:12.465Z,76.78
2023-03-11T08:29:12.432Z,77.34
2023-03-11T08:33:12.434Z,82.52
2023-03-11T08:37:12.382Z,76.92
2023-03-11T08:41:12.383Z,81.27
2023-03-11T08:45:12.330Z,78.76
2023-03-11T08:49:12.413Z,78.96
2023-03-11T08:53:12.387Z,79.68
2023-03-11T08:57:12.593Z,77.32
2023-03-11T09:01:12.746Z,79.60
2023-03-11T09:05:12.869Z,76.29
2023-03-11T09:09:13.084Z,79.69
2023-03-11T09:13:13.137Z,82.00
2023-03-11T09:17:13.264Z,78.90
2023-03-11T09:21:13.695Z,79.67
2023-03-11T09:25:13.679Z,81.73
2023-03-11T09:29:13.853Z,79.60
2023-03-11T09:33:13.982Z,80.47
2023-03-11T09:37:14.261Z,79.29
2023-03-11T09:41:14.131Z,84.61
2023-03-11T09:45:14.117Z,78.73
2023-03-11T09:49:14.084Z,80.94
2023-03-11T09:53:14.093Z,83.98
2023-03-11T09:57:13.993Z,77.82
2023-03-11T10:01:13.956Z,79.14
2023-03-11T10:05:14.182Z,82.18
2023-03-11T10:09:13.913Z,83.27
2023-03-11T10:13:13.843Z,80.44
2023-03-11T10:17:13.827Z,78.50
2023-03-11T10:21:13.838Z,79.50
2023-03-11T10:25:13.985Z,80.47
2023-03-11T10:29:14.147Z,83.54
2023-03-11T10:33:14.380Z,79.22
2023-03-11T10:37:14.553Z,77.43
2023-03-11T10:41:14.747Z,77.63
2023-03-11T10:45:14.939Z,77.64
2023-03-11T10:49:15.108Z,76.31
2023-03-11T10:53:15.281Z,75.11
2023-03-11T10:57:15.522Z,73.29
2023-03-11T11:01:15.844Z,71.66
2023-03-11T11:05:15.951Z,70.58
2023-03-11T11:09:15.922Z,66.53
2023-03-11T11:13:15.893Z,63.52
2023-03-11T11:17:15.870Z,60.88
2023-03-11T11:21:15.802Z,60.46
2023-03-11T11:25:15.830Z,57.32
2023-03-11T11:29:15.718Z,56.14
2023-03-11T11:33:15.668Z,51.87
2023-03-11T11:37:15.640Z,54.18
2023-03-11T11:41:15.614Z,53.16
2023-03-11T11:45:15.602Z,55.17
2023-03-11T11:49:15.582Z,51.57
2023-03-11T11:53:15.553Z,51.06
2023-03-11T11:57:15.531Z,48.63
2023-03-11T12:01:15.510Z,46.08
2023-03-11T12:05:15.487Z,47.46
2023-03-11T12:09:15.384Z,47.36
2023-03-11T12:13:15.385Z,45.24
2023-03-11T12:17:15.769Z,43.29
2023-03-11T12:21:15.262Z,43.71
2023-03-11T12:25:15.239Z,44.43
2023-03-11T12:29:16.170Z,42.15
2023-03-11T12:33:15.496Z,42.54
2023-03-11T12:37:15.650Z,44.32
2023-03-11T12:41:15.815Z,43.52
2023-03-11T12:45:16.052Z,42.44
2023-03-11T12:49:16.184Z,42.90
2023-03-11T12:53:16.316Z,41.92
2023-03-11T12:57:16.506Z,48.09
2023-03-11T13:01:16.679Z,42.04
2023-03-11T13:05:16.863Z,38.33
2023-03-11T13:09:17.054Z,40.59
2023-03-11T13:13:17.173Z,36.27
2023-03-11T13:17:17.299Z,39.30
2023-03-11T13:21:17.427Z,43.34
2023-03-11T13:25:17.557Z,41.59
2023-03-11T13:29:17.688Z,42.16
2023-03-11T13:33:17.734Z,45.68
2023-03-11T13:37:17.808Z,47.00
2023-03-11T13:41:17.874Z,42.49
2023-03-11T13:45:17.915Z,42.87
2023-03-11T13:49:17.922Z,42.68
2023-03-11T13:53:18.022Z,37.32
2023-03-11T13:57:17.877Z,36.82
2023-03-11T14:01:18.048Z,46.54
2023-03-11T14:05:18.157Z,48.07
2023-03-11T14:09:18.138Z,54.07
2023-03-11T14:13:18.089Z,56.63
2023-03-11T14:17:18.087Z,59.18
2023-03-11T14:21:17.991Z,60.29
2023-03-11T14:25:17.966Z,58.08
2023-03-11T14:29:17.946Z,60.31
2023-03-11T14:33:17.866Z,63.36
2023-03-11T14:37:17.836Z,64.69
2023-03-11T14:41:17.822Z,60.85
2023-03-11T14:45:17.858Z,66.76
2023-03-11T14:49:17.710Z,64.88
2023-03-11T14:53:17.711Z,68.35
2023-03-11T14:57:17.678Z,71.13
2023-03-11T15:01:17.621Z,71.86
2023-03-11T15:05:17.821Z,76.11
2023-03-11T15:09:17.732Z,73.86
2023-03-11T15:13:17.731Z,74.04
2023-03-11T15:17:33.971Z,70.78
2023-03-11T15:21:18.647Z,58.36
2023-03-11T15:25:17.633Z,73.02
2023-03-11T15:29:17.573Z,74.61
2023-03-11T15:33:17.609Z,101.20
2023-03-11T15:37:17.728Z,113.84
2023-03-11T15:41:17.770Z,86.76
2023-03-11T15:45:17.933Z,78.22
2023-03-11T15:49:18.084Z,90.10
2023-03-11T15:53:18.200Z,78.93
2023-03-11T15:57:18.334Z,53.08
2023-03-11T16:01:18.409Z,38.99
2023-03-11T16:05:18.691Z,30.00
2023-03-11T16:09:18.553Z,34.33
2023-03-11T16:13:18.585Z,38.26
2023-03-11T16:17:18.521Z,36.79
2023-03-11T16:21:18.492Z,34.36
2023-03-11T16:25:18.412Z,34.60
2023-03-11T16:29:19.827Z,34.20
2023-03-11T16:33:18.372Z,33.15
2023-03-11T16:37:18.353Z,31.68
2023-03-11T16:41:18.285Z,34.47
2023-03-11T16:45:18.259Z,33.80
2023-03-11T16:49:18.243Z,33.41
2023-03-11T16:53:18.216Z,31.93
2023-03-11T16:57:18.346Z,31.47
2023-03-11T17:01:18.543Z,32.41
2023-03-11T17:05:18.749Z,33.35
2023-03-11T17:09:18.978Z,32.80
2023-03-11T17:13:19.253Z,34.62
2023-03-11T17:17:18.885Z,35.46
2023-03-11T17:21:18.859Z,33.16
2023-03-11T17:25:18.827Z,33.90
2023-03-11T17:29:18.817Z,36.22
2023-03-11T17:33:18.764Z,36.15
2023-03-11T17:37:18.715Z,33.16
2023-03-11T17:41:18.725Z,37.23
2023-03-11T17:45:18.649Z,35.25
2023-03-11T17:49:18.567Z,39.14
2023-03-11T17:53:18.552Z,37.64
2023-03-11T17:57:18.507Z,38.10
2023-03-11T18:01:18.620Z,36.75
2023-03-11T18:05:18.855Z,36.82
2023-03-11T18:09:18.427Z,35.70
2023-03-11T18:13:18.407Z,35.33
2023-03-11T18:17:18.727Z,35.10
2023-03-11T18:21:18.383Z,34.85
2023-03-11T18:25:18.416Z,36.75
2023-03-11T18:29:19.084Z,37.55
2023-03-11T18:33:18.436Z,35.77
2023-03-11T18:37:33.388Z,34.41
2023-03-11T18:41:18.394Z,35.76
2023-03-11T18:45:18.448Z,37.39
2023-03-11T18:49:18.391Z,36.34
2023-03-11T18:53:18.305Z,37.68
2023-03-11T18:57:18.268Z,36.00
2023-03-11T19:01:18.269Z,35.54
2023-03-11T19:05:18.253Z,36.03
2023-03-11T19:09:18.193Z,35.36
2023-03-11T19:13:18.170Z,38.17
2023-03-11T19:17:18.161Z,37.70
2023-03-11T19:21:18.086Z,35.26
2023-03-11T19:25:18.406Z,35.19
2023-03-11T19:29:17.939Z,35.73
2023-03-11T19:33:17.935Z,38.98
2023-03-11T19:37:17.935Z,38.16
2023-03-11T19:41:17.856Z,39.26
2023-03-11T19:45:17.851Z,37.11
2023-03-11T19:49:17.777Z,33.60
2023-03-11T19:53:17.761Z,36.44
2023-03-11T19:57:17.786Z,34.81
2023-03-11T20:01:17.822Z,36.16
2023-03-11T20:05:18.004Z,36.20
2023-03-11T20:09:18.161Z,38.91
2023-03-11T20:13:18.255Z,38.58
2023-03-11T20:17:18.441Z,35.95
2023-03-11T20:21:18.574Z,35.25
2023-03-11T20:25:18.711Z,37.72
2023-03-11T20:29:18.964Z,35.44
2023-03-11T20:33:19.142Z,35.81
2023-03-11T20:37:19.396Z,31.53
2023-03-11T20:41:19.487Z,33.57
2023-03-11T20:45:19.771Z,36.19
2023-03-11T20:49:20.000Z,33.56
2023-03-11T20:53:20.098Z,34.96
2023-03-11T20:57:20.321Z,35.38
2023-03-11T21:01:20.553Z,30.92
2023-03-11T21:05:20.631Z,35.01
2023-03-11T21:09:20.799Z,36.52
2023-03-11T21:13:20.881Z,32.15
2023-03-11T21:17:21.093Z,31.39
2023-03-11T21:21:21.064Z,32.90
2023-03-11T21:25:21.009Z,32.19
2023-03-11T21:29:20.983Z,30.62
2023-03-11T21:33:21.016Z,29.84
2023-03-11T21:37:20.837Z,34.36
2023-03-11T21:41:20.878Z,32.48
2023-03-11T21:45:20.838Z,32.96
2023-03-11T21:49:20.740Z,36.67
2023-03-11T21:53:20.728Z,31.30
2023-03-11T21:57:20.618Z,31.47
2023-03-11T22:01:20.720Z,31.96
2023-03-11T22:05:20.788Z,30.98
2023-03-11T22:09:20.582Z,29.75
2023-03-11T22:13:20.540Z,32.87
2023-03-11T22:17:20.533Z,32.93
2023-03-11T22:21:20.472Z,33.40
2023-03-11T22:25:20.356Z,30.75
2023-03-11T22:29:20.539Z,33.36
2023-03-11T22:33:20.345Z,32.09
2023-03-11T22:37:20.347Z,32.50
2023-03-11T22:41:20.547Z,31.06
2023-03-11T22:45:20.737Z,30.58
2023-03-11T22:49:20.883Z,29.61
2023-03-11T22:53:21.002Z,31.55
2023-03-11T22:57:21.249Z,31.11
2023-03-11T23:01:21.383Z,31.12
2023-03-11T23:05:21.627Z,32.30
2023-03-11T23:09:21.932Z,28.49
2023-03-11T23:13:21.924Z,30.37
2023-03-11T23:17:22.095Z,32.73
2023-03-11T23:21:22.237Z,30.92
2023-03-11T23:25:22.346Z,31.25
2023-03-11T23:29:22.518Z,28.78
2023-03-11T23:33:23.029Z,34.67
2023-03-11T23:37:22.805Z,30.78
2023-03-11T23:41:22.955Z,28.17
2023-03-11T23:45:23.109Z,32.30
2023-03-11T23:49:23.233Z,36.50
2023-03-11T23:53:23.423Z,30.96
2023-03-11T23:57:23.594Z,28.61
